Time;durP1;ratioP1;P1;durP2;ratioP2;P2;SDS_P1;SDS_P2;PMS_P1;PMS_P2;Temp;Humidity;BMP_temperature;BMP_pressure;BME280_temperature;BME280_humidity;BME280_pressure;Samples;Min_cycle;Max_cycle;Signal;HPM_P1;HPM_P2
2021/04/27 00:02:18;;;;;;;6.57;3.78;;;5.40;81.00;;;;;;6278619;22;20110;-77
2021/04/27 00:04:49;;;;;;;4.95;3.15;;;5.30;81.80;;;;;;6250924;22;20046;-77
2021/04/27 00:07:20;;;;;;;4.60;3.08;;;5.30;82.80;;;;;;6254468;22;20033;-77
2021/04/27 00:09:47;;;;;;;6.15;2.95;;;5.20;85.10;;;;;;6278593;22;20057;-77
2021/04/27 00:12:19;;;;;;;4.75;3.97;;;5.20;84.40;;;;;;6254118;22;20102;-77
2021/04/27 00:14:50;;;;;;;5.13;3.45;;;5.10;85.50;;;;;;6279169;22;20089;-79
2021/04/27 00:17:22;;;;;;;4.97;3.58;;;5.10;86.60;;;;;;6278703;22;20102;-77
2021/04/27 00:19:53;;;;;;;4.57;3.40;;;5.00;87.20;;;;;;6305816;22;20095;-78
2021/04/27 00:22:24;;;;;;;9.32;3.80;;;4.90;88.50;;;;;;6305812;22;20499;-77
2021/04/27 00:24:55;;;;;;;6.03;3.38;;;4.90;90.00;;;;;;6277731;22;20102;-77
2021/04/27 00:27:27;;;;;;;4.60;3.22;;;4.80;90.30;;;;;;6279767;22;20034;-77
2021/04/27 00:29:53;;;;;;;8.02;3.10;;;4.80;90.90;;;;;;6253054;22;20019;-77
2021/04/27 00:32:25;;;;;;;4.47;3.42;;;4.70;91.10;;;;;;6279936;22;20035;-77
2021/04/27 00:34:56;;;;;;;4.15;3.22;;;4.60;91.60;;;;;;6305094;22;20043;-77
2021/04/27 00:37:27;;;;;;;6.72;3.70;;;4.50;92.50;;;;;;6278837;22;20106;-77
2021/04/27 00:39:58;;;;;;;6.38;4.00;;;4.50;92.80;;;;;;6305741;22;20103;-77
2021/04/27 00:42:35;;;;;;;7.03;4.60;;;4.50;93.60;;;;;;6253927;22;20108;-77
2021/04/27 00:45:13;;;;;;;4.63;3.28;;;4.50;93.70;;;;;;6304905;22;20069;-78
2021/04/27 00:47:45;;;;;;;5.30;3.50;;;4.40;93.30;;;;;;6253913;22;20111;-77
2021/04/27 00:50:40;;;;;;;5.53;3.80;;;4.30;93.80;;;;;;6305751;22;20090;-77
2021/04/27 00:53:12;;;;;;;5.28;4.30;;;4.20;94.60;;;;;;6279472;22;20019;-77
2021/04/27 00:55:44;;;;;;;5.82;4.18;;;4.20;95.30;;;;;;6252990;22;20388;-77
2021/04/27 00:58:16;;;;;;;12.57;5.88;;;4.20;96.70;;;;;;6305619;22;20043;-77
2021/04/27 01:00:49;;;;;;;6.78;4.70;;;4.20;97.20;;;;;;6277488;22;20019;-78
2021/04/27 01:03:21;;;;;;;6.00;4.40;;;4.10;97.20;;;;;;6304016;22;20019;-77
2021/04/27 01:05:52;;;;;;;6.25;4.60;;;4.00;97.00;;;;;;6249079;22;20094;-77
2021/04/27 01:08:32;;;;;;;9.40;4.38;;;4.00;97.60;;;;;;6278872;22;20042;-77
2021/04/27 01:11:11;;;;;;;6.78;5.03;;;3.90;98.10;;;;;;6277723;22;20065;-77
2021/04/27 01:13:59;;;;;;;9.18;5.38;;;3.80;98.80;;;;;;6277175;22;20097;-77
2021/04/27 01:16:33;;;;;;;6.50;4.82;;;3.90;98.90;;;;;;6304320;22;20085;-77
2021/04/27 01:19:09;;;;;;;4.32;3.85;;;3.90;99.10;;;;;;6253932;22;20015;-77
2021/04/27 01:21:42;;;;;;;8.02;5.13;;;3.80;98.90;;;;;;6277536;22;20022;-77
2021/04/27 01:24:33;;;;;;;5.97;4.10;;;3.80;99.20;;;;;;6252413;22;20057;-77
2021/04/27 01:27:06;;;;;;;5.68;4.30;;;3.80;99.30;;;;;;6277167;22;20022;-77
2021/04/27 01:29:38;;;;;;;6.15;4.00;;;3.80;99.80;;;;;;6277317;22;20105;-77
2021/04/27 01:32:10;;;;;;;6.40;4.35;;;3.80;99.80;;;;;;6279213;22;20539;-77
2021/04/27 01:34:45;;;;;;;;;;;3.80;99.90;;;;;;6280037;22;20035;-79
2021/04/27 01:37:35;;;;;;;6.78;4.22;;;3.80;99.60;;;;;;6285594;22;19922;-77
2021/04/27 01:40:07;;;;;;;5.57;3.50;;;3.70;99.60;;;;;;6255815;22;20034;-78
2021/04/27 01:42:39;;;;;;;6.75;3.88;;;3.70;99.90;;;;;;6279704;22;20069;-78
2021/04/27 01:45:11;;;;;;;5.45;3.88;;;3.70;99.90;;;;;;6254170;22;20019;-77
2021/04/27 01:47:42;;;;;;;6.45;4.28;;;3.60;99.90;;;;;;6306743;22;20019;-78
2021/04/27 01:50:14;;;;;;;6.40;3.90;;;3.60;99.90;;;;;;6279314;22;20012;-77
2021/04/27 01:53:04;;;;;;;5.45;3.67;;;3.60;99.90;;;;;;6306729;22;20030;-77
2021/04/27 01:55:36;;;;;;;4.63;3.58;;;3.50;99.90;;;;;;6305885;22;20110;-77
2021/04/27 01:58:08;;;;;;;6.57;3.92;;;3.50;99.90;;;;;;6244349;22;20019;-79
2021/04/27 02:00:39;;;;;;;4.68;3.58;;;3.50;99.90;;;;;;6307330;22;20102;-77
2021/04/27 02:03:11;;;;;;;7.85;3.95;;;3.40;99.90;;;;;;6279787;22;20012;-77
2021/04/27 02:05:57;;;;;;;6.38;3.65;;;3.50;99.90;;;;;;6283723;22;20105;-77
2021/04/27 02:08:29;;;;;;;5.30;4.22;;;3.50;99.90;;;;;;6307511;22;20082;-77
2021/04/27 02:11:03;;;;;;;5.18;3.00;;;3.50;99.50;;;;;;6256378;22;20042;-77
2021/04/27 02:13:36;;;;;;;8.47;3.83;;;3.50;99.30;;;;;;6255912;22;20023;-77
2021/04/27 02:16:08;;;;;;;5.15;3.67;;;3.60;98.60;;;;;;6254788;22;20258;-77
2021/04/27 02:18:50;;;;;;;4.78;3.72;;;3.60;98.20;;;;;;6281921;22;20025;-77
2021/04/27 02:21:25;;;;;;;6.53;3.85;;;3.70;97.60;;;;;;6279837;22;20456;-77
2021/04/27 02:24:15;;;;;;;4.65;3.38;;;3.70;97.10;;;;;;6306627;22;20034;-78
2021/04/27 02:26:47;;;;;;;5.18;3.80;;;3.70;97.20;;;;;;6255206;22;20019;-77
2021/04/27 02:29:23;;;;;;;4.78;3.17;;;3.80;96.80;;;;;;6280020;22;20015;-77
2021/04/27 02:32:00;;;;;;;5.15;4.10;;;3.80;96.50;;;;;;6255459;22;20011;-77
2021/04/27 02:34:34;;;;;;;4.32;3.20;;;3.80;96.40;;;;;;6278846;22;20015;-77
2021/04/27 02:37:08;;;;;;;6.78;3.58;;;3.70;96.40;;;;;;6255685;22;20023;-77
2021/04/27 02:39:41;;;;;;;6.05;3.17;;;3.70;96.30;;;;;;6279496;22;20019;-77
2021/04/27 02:42:13;;;;;;;7.70;4.22;;;3.70;96.40;;;;;;6255131;22;20054;-77
2021/04/27 02:44:51;;;;;;;6.82;4.10;;;3.70;96.00;;;;;;6281886;22;20081;-77
2021/04/27 02:47:41;;;;;;;6.82;3.58;;;3.70;96.10;;;;;;6284885;22;20034;-78
2021/04/27 02:50:14;;;;;;;10.65;4.25;;;3.70;95.80;;;;;;6255369;22;20015;-77
2021/04/27 02:52:42;;;;;;;6.60;4.75;;;3.80;95.50;;;;;;6279101;22;20440;-78
2021/04/27 02:55:13;;;;;;;5.95;3.95;;;3.80;95.60;;;;;;6254393;22;20502;-77
2021/04/27 02:57:45;;;;;;;5.20;3.67;;;3.80;95.50;;;;;;6255587;22;20487;-77
2021/04/27 03:00:17;;;;;;;6.13;3.83;;;3.70;95.40;;;;;;6255190;22;20023;-77
2021/04/27 03:02:55;;;;;;;4.82;3.63;;;3.70;95.60;;;;;;6256576;22;20065;-77
2021/04/27 03:05:26;;;;;;;5.03;3.40;;;3.70;95.50;;;;;;6254078;22;20507;-78
2021/04/27 03:07:58;;;;;;;5.50;3.72;;;3.70;95.90;;;;;;6279390;22;20031;-79
2021/04/27 03:10:29;;;;;;;7.47;4.22;;;3.70;95.80;;;;;;6279478;22;20020;-77
2021/04/27 03:13:02;;;;;;;5.07;3.80;;;3.70;95.50;;;;;;6279238;22;20034;-77
2021/04/27 03:15:46;;;;;;;6.07;3.95;;;3.60;95.50;;;;;;6278478;22;20019;-77
2021/04/27 03:18:17;;;;;;;6.15;3.75;;;3.60;95.70;;;;;;6280973;22;20011;-77
2021/04/27 03:20:49;;;;;;;7.68;3.97;;;3.60;96.00;;;;;;6280867;22;20022;-77
2021/04/27 03:23:28;;;;;;;6.55;4.00;;;3.60;95.90;;;;;;6256279;22;20019;-78
2021/04/27 03:25:59;;;;;;;5.82;4.00;;;3.50;96.30;;;;;;6279705;22;20011;-78
2021/04/27 03:28:51;;;;;;;5.03;3.83;;;3.50;96.50;;;;;;6258441;22;20033;-77
2021/04/27 03:31:23;;;;;;;7.07;5.03;;;3.50;96.50;;;;;;6255320;22;20015;-77
2021/04/27 03:33:56;;;;;;;5.22;3.70;;;3.40;96.80;;;;;;6254529;22;20481;-78
2021/04/27 03:36:27;;;;;;;8.18;4.07;;;3.40;96.70;;;;;;6256275;22;20030;-78
2021/04/27 03:39:01;;;;;;;;;;;3.40;96.90;;;;;;6281488;22;20023;-78
2021/04/27 03:41:33;;;;;;;6.35;4.13;;;3.40;96.90;;;;;;6282063;22;19945;-78
2021/04/27 03:44:04;;;;;;;7.35;4.47;;;3.30;97.80;;;;;;6256784;22;20066;-79
2021/04/27 03:46:38;;;;;;;5.78;3.83;;;3.30;97.10;;;;;;6256950;22;20015;-79
2021/04/27 03:49:10;;;;;;;7.88;3.58;;;3.20;97.70;;;;;;6256194;22;20030;-78
2021/04/27 03:51:41;;;;;;;7.32;3.90;;;3.20;98.50;;;;;;6255612;22;20021;-79
2021/04/27 03:54:15;;;;;;;4.13;3.45;;;3.10;99.10;;;;;;6280086;22;20019;-79
2021/04/27 03:56:47;;;;;;;5.07;3.88;;;3.00;99.90;;;;;;6307947;22;20022;-79
2021/04/27 03:59:20;;;;;;;5.57;3.60;;;3.00;99.90;;;;;;6256159;22;20019;-79
2021/04/27 04:01:52;;;;;;;6.20;4.00;;;2.80;99.90;;;;;;6255823;22;20034;-79
2021/04/27 04:04:25;;;;;;;5.90;3.38;;;2.80;99.90;;;;;;6279910;22;20394;-79
2021/04/27 04:07:12;;;;;;;4.85;3.20;;;2.70;99.90;;;;;;6284865;22;20526;-79
2021/04/27 04:10:06;;;;;;;6.43;3.72;;;2.70;99.90;;;;;;6286085;22;20045;-79
2021/04/27 04:12:36;;;;;;;6.93;3.97;;;2.70;99.90;;;;;;6280007;22;20039;-79
2021/04/27 04:15:11;;;;;;;6.35;4.05;;;2.60;99.90;;;;;;6255806;22;20351;-79
2021/04/27 04:17:48;;;;;;;9.43;4.40;;;2.60;99.90;;;;;;6256332;22;20026;-78
2021/04/27 04:20:24;;;;;;;12.10;4.13;;;2.60;99.90;;;;;;6279915;22;20015;-78
2021/04/27 04:23:19;;;;;;;12.98;4.05;;;2.60;99.90;;;;;;6280123;22;20024;-78
2021/04/27 04:25:51;;;;;;;11.32;4.63;;;2.50;99.90;;;;;;6279536;22;20352;-78
2021/04/27 04:28:18;;;;;;;7.95;3.78;;;2.50;99.90;;;;;;6277773;22;20034;-79
2021/04/27 04:30:50;;;;;;;8.93;4.25;;;2.40;99.90;;;;;;6255259;22;20007;-78
2021/04/27 04:33:35;;;;;;;7.00;4.55;;;2.40;99.90;;;;;;6307535;22;20030;-79
2021/04/27 04:36:26;;;;;;;10.23;4.93;;;2.40;99.90;;;;;;6308150;22;20034;-79
2021/04/27 04:39:11;;;;;;;8.77;5.70;;;2.30;99.90;;;;;;6284746;22;20455;-79
2021/04/27 04:42:11;;;;;;;9.13;5.78;;;2.40;99.90;;;;;;6307503;22;20101;-79
2021/04/27 04:44:56;;;;;;;6.00;4.50;;;2.40;99.90;;;;;;6285058;22;20034;-79
2021/04/27 04:47:47;;;;;;;8.57;4.35;;;2.30;99.90;;;;;;6285874;22;20026;-79
2021/04/27 04:50:32;;;;;;;6.10;3.58;;;2.40;99.90;;;;;;6284925;22;20030;-78
2021/04/27 04:53:38;;;;;;;8.82;3.70;;;2.40;99.90;;;;;;6170955;23;20025;-79
2021/04/27 04:56:10;;;;;;;10.35;4.50;;;2.40;99.90;;;;;;6153722;23;20022;-79
2021/04/27 04:58:42;;;;;;;8.65;3.88;;;2.40;99.90;;;;;;6235400;22;20347;-79
2021/04/27 05:01:10;;;;;;;14.45;6.25;;;2.40;99.90;;;;;;6306665;22;20022;-78
2021/04/27 05:03:38;;;;;;;13.55;5.97;;;2.50;99.90;;;;;;6279265;22;20031;-79
2021/04/27 05:06:37;;;;;;;20.33;4.97;;;2.50;99.90;;;;;;6286530;22;20527;-78
2021/04/27 05:09:27;;;;;;;8.45;5.20;;;2.50;99.90;;;;;;6284487;22;20086;-79
2021/04/27 05:12:04;;;;;;;14.05;6.07;;;2.60;99.90;;;;;;6278877;22;20448;-79
2021/04/27 05:15:02;;;;;;;16.83;5.47;;;2.60;99.90;;;;;;6301752;22;20023;-78
2021/04/27 05:17:34;;;;;;;20.67;7.17;;;2.70;99.90;;;;;;6279091;22;20015;-78
2021/04/27 05:20:05;;;;;;;14.43;7.07;;;2.80;99.90;;;;;;6280110;22;20019;-78
2021/04/27 05:22:45;;;;;;;11.57;5.97;;;2.80;99.90;;;;;;6256530;22;20401;-78
2021/04/27 05:25:20;;;;;;;13.85;6.72;;;2.90;99.90;;;;;;6279682;22;20026;-79
2021/04/27 05:28:04;;;;;;;10.60;6.40;;;2.90;99.90;;;;;;6257844;22;20379;-78
2021/04/27 05:30:32;;;;;;;13.15;6.43;;;3.00;99.90;;;;;;6278791;22;20043;-78
2021/04/27 05:32:59;;;;;;;11.57;5.82;;;3.00;99.90;;;;;;6252388;22;20019;-78
2021/04/27 05:35:26;;;;;;;10.48;6.10;;;3.00;99.90;;;;;;6279425;22;20019;-78
2021/04/27 05:37:57;;;;;;;13.43;6.50;;;3.10;99.90;;;;;;6255458;22;20030;-78
2021/04/27 05:40:29;;;;;;;15.00;5.72;;;3.20;99.90;;;;;;6280575;22;20023;-78
2021/04/27 05:42:56;;;;;;;11.68;6.55;;;3.20;99.90;;;;;;6280477;22;20447;-78
2021/04/27 05:45:27;;;;;;;7.55;5.30;;;3.30;99.90;;;;;;6255594;22;20019;-78
2021/04/27 05:47:59;;;;;;;8.48;5.20;;;3.40;99.90;;;;;;6280881;22;20356;-78
2021/04/27 05:50:26;;;;;;;8.10;5.35;;;3.50;99.90;;;;;;6306159;22;20068;-79
2021/04/27 05:52:58;;;;;;;8.65;5.93;;;3.60;99.90;;;;;;6277792;22;20038;-78
2021/04/27 05:55:30;;;;;;;7.47;5.85;;;3.60;99.90;;;;;;6279079;22;20510;-79
2021/04/27 05:58:01;;;;;;;8.88;5.70;;;3.70;99.90;;;;;;6253505;22;20452;-78
2021/04/27 06:00:32;;;;;;;9.75;6.03;;;3.80;99.90;;;;;;6279980;22;20053;-79
2021/04/27 06:03:04;;;;;;;11.65;5.90;;;3.90;99.90;;;;;;6277808;22;20102;-78
2021/04/27 06:05:35;;;;;;;9.80;5.57;;;4.00;99.90;;;;;;6277850;22;20121;-79
2021/04/27 06:08:06;;;;;;;9.10;5.82;;;4.10;99.90;;;;;;6277182;22;20026;-79
2021/04/27 06:10:38;;;;;;;7.47;5.43;;;4.20;99.90;;;;;;6251966;22;20455;-79
2021/04/27 06:13:11;;;;;;;9.60;5.45;;;4.30;99.90;;;;;;6276943;22;20017;-79
2021/04/27 06:15:37;;;;;;;9.98;5.65;;;4.40;99.90;;;;;;6305350;22;20404;-79
2021/04/27 06:18:08;;;;;;;7.95;5.57;;;4.50;99.90;;;;;;6279189;22;20051;-79
2021/04/27 06:20:40;;;;;;;8.05;5.85;;;4.60;99.90;;;;;;6281726;22;20069;-79
2021/04/27 06:23:11;;;;;;;10.68;5.47;;;4.70;99.90;;;;;;6255663;22;20015;-78
2021/04/27 06:25:38;;;;;;;9.45;5.40;;;4.80;99.90;;;;;;6254127;22;20081;-79
2021/04/27 06:28:14;;;;;;;6.35;4.88;;;4.90;99.90;;;;;;6280777;22;20045;-79
2021/04/27 06:30:46;;;;;;;9.25;5.50;;;5.00;99.90;;;;;;6279874;22;20047;-78
2021/04/27 06:33:17;;;;;;;8.23;5.75;;;5.10;99.90;;;;;;6278661;22;20106;-79
2021/04/27 06:35:48;;;;;;;8.13;5.75;;;5.20;99.60;;;;;;6254073;22;20050;-79
2021/04/27 06:38:20;;;;;;;10.85;5.25;;;5.30;99.60;;;;;;6279227;22;20097;-79
2021/04/27 06:40:53;;;;;;;15.30;5.70;;;5.40;99.10;;;;;;6255589;22;20106;-79
2021/04/27 06:43:24;;;;;;;7.10;5.60;;;5.50;99.00;;;;;;6279498;22;20329;-79
2021/04/27 06:45:56;;;;;;;8.40;6.40;;;5.60;99.40;;;;;;6277731;22;20097;-79
2021/04/27 06:48:28;;;;;;;7.80;5.88;;;5.70;98.90;;;;;;6254328;22;20058;-78
2021/04/27 06:50:59;;;;;;;6.88;5.20;;;5.90;98.30;;;;;;6254419;22;20042;-79
2021/04/27 06:53:31;;;;;;;7.72;5.22;;;6.00;98.00;;;;;;6278978;22;20479;-79
2021/04/27 06:56:03;;;;;;;8.15;5.53;;;6.10;97.20;;;;;;6254833;22;20102;-79
2021/04/27 06:58:34;;;;;;;10.40;5.53;;;6.20;97.10;;;;;;6279523;22;20042;-79
2021/04/27 07:01:06;;;;;;;6.28;5.07;;;6.30;96.80;;;;;;6281710;22;20082;-79
2021/04/27 07:03:38;;;;;;;7.50;5.20;;;6.40;96.50;;;;;;6255338;22;20106;-79
2021/04/27 07:06:09;;;;;;;10.15;5.30;;;6.50;96.80;;;;;;6305990;22;20094;-79
2021/04/27 07:08:41;;;;;;;7.63;5.57;;;6.60;96.10;;;;;;6307262;22;20090;-79
2021/04/27 07:11:13;;;;;;;8.30;5.28;;;6.70;95.70;;;;;;6280342;22;20043;-75
2021/04/27 07:13:44;;;;;;;8.23;5.35;;;6.90;95.50;;;;;;6306423;22;20110;-78
2021/04/27 07:16:17;;;;;;;8.85;5.25;;;7.00;94.80;;;;;;6278187;22;20011;-75
2021/04/27 07:18:48;;;;;;;9.82;5.63;;;7.10;94.30;;;;;;6277249;22;20440;-74
2021/04/27 07:21:22;;;;;;;8.05;5.82;;;7.20;94.40;;;;;;6253570;22;20103;-75
2021/04/27 07:23:54;;;;;;;13.63;6.80;;;7.20;94.10;;;;;;6306965;22;20340;-74
2021/04/27 07:26:25;;;;;;;10.43;6.28;;;7.30;94.10;;;;;;6276049;22;20094;-76
2021/04/27 07:28:58;;;;;;;12.73;7.72;;;7.40;93.80;;;;;;6278359;22;20038;-75
2021/04/27 07:31:30;;;;;;;11.68;7.53;;;7.60;93.50;;;;;;6277418;22;20098;-76
2021/04/27 07:34:01;;;;;;;11.35;7.88;;;7.60;92.80;;;;;;6305887;22;20094;-75
2021/04/27 07:36:33;;;;;;;9.60;6.18;;;7.80;92.70;;;;;;6305643;22;20023;-74
2021/04/27 07:39:06;;;;;;;10.55;6.15;;;7.90;92.10;;;;;;6278631;22;20019;-74
2021/04/27 07:41:38;;;;;;;7.10;5.15;;;8.00;92.20;;;;;;6278686;22;20363;-76
2021/04/27 07:44:10;;;;;;;9.07;6.25;;;8.10;91.60;;;;;;6304743;22;20507;-74
2021/04/27 07:46:41;;;;;;;10.27;5.68;;;8.20;91.60;;;;;;6278465;22;20488;-74
2021/04/27 07:49:12;;;;;;;10.45;5.72;;;8.30;91.20;;;;;;6278296;22;20025;-75
2021/04/27 07:51:44;;;;;;;9.02;6.35;;;8.50;90.70;;;;;;6305092;22;20011;-74
2021/04/27 07:54:15;;;;;;;10.57;6.88;;;8.60;91.10;;;;;;6277062;22;20439;-77
2021/04/27 07:56:47;;;;;;;8.95;5.75;;;8.70;89.70;;;;;;6305371;22;20090;-75
2021/04/27 07:59:18;;;;;;;7.53;5.82;;;8.80;89.90;;;;;;6278178;22;20053;-74
2021/04/27 08:01:49;;;;;;;8.88;6.68;;;8.90;89.10;;;;;;6278249;22;20447;-75
2021/04/27 08:04:21;;;;;;;8.95;5.63;;;9.10;89.90;;;;;;6279011;22;20021;-74
2021/04/27 08:06:52;;;;;;;8.68;6.15;;;9.20;88.00;;;;;;6277794;22;20387;-76
2021/04/27 08:09:23;;;;;;;9.98;5.55;;;9.30;87.60;;;;;;6305138;22;20021;-78
2021/04/27 08:11:55;;;;;;;10.77;6.95;;;9.40;87.40;;;;;;6278030;22;20021;-74
2021/04/27 08:14:26;;;;;;;10.55;6.25;;;9.60;87.10;;;;;;6303874;22;20444;-76
2021/04/27 08:16:57;;;;;;;9.82;7.28;;;9.70;86.00;;;;;;6305552;22;20030;-74
2021/04/27 08:19:28;;;;;;;13.15;8.02;;;9.80;84.50;;;;;;6279441;22;20021;-75
2021/04/27 08:22:00;;;;;;;12.48;7.97;;;9.90;85.50;;;;;;6305309;22;20022;-74
2021/04/27 08:24:33;;;;;;;11.02;6.35;;;10.00;84.30;;;;;;6304528;22;21022;-74
2021/04/27 08:27:04;;;;;;;8.45;6.28;;;10.10;84.70;;;;;;6305427;22;20098;-76
2021/04/27 08:29:36;;;;;;;14.77;7.32;;;10.30;84.50;;;;;;6278048;22;20448;-74
2021/04/27 08:32:02;;;;;;;13.52;7.53;;;10.40;82.20;;;;;;6303468;22;20106;-74
2021/04/27 08:34:28;;;;;;;12.10;8.02;;;10.50;80.60;;;;;;6302155;22;20098;-74
2021/04/27 08:37:00;;;;;;;23.38;7.63;;;10.50;81.00;;;;;;6275697;22;20015;-78
2021/04/27 08:39:32;;;;;;;10.85;8.27;;;10.70;81.80;;;;;;6279088;22;20018;-74
2021/04/27 08:42:04;;;;;;;13.55;7.78;;;10.90;80.70;;;;;;6278700;22;20022;-74
2021/04/27 08:44:35;;;;;;;13.88;8.60;;;11.10;79.50;;;;;;6278327;22;20023;-77
2021/04/27 08:47:08;;;;;;;10.20;7.15;;;11.20;77.90;;;;;;6277511;22;20016;-74
2021/04/27 08:49:40;;;;;;;9.93;6.90;;;11.30;77.50;;;;;;6305466;22;20351;-75
2021/04/27 08:52:07;;;;;;;8.57;7.05;;;11.40;76.20;;;;;;6305257;22;20043;-74
2021/04/27 08:54:37;;;;;;;9.73;7.13;;;11.50;76.90;;;;;;6251557;22;20053;-74
2021/04/27 08:57:04;;;;;;;11.60;6.80;;;11.60;74.70;;;;;;6278288;22;20084;-74
2021/04/27 08:59:35;;;;;;;8.38;6.60;;;11.70;74.20;;;;;;6304157;22;20025;-74
2021/04/27 09:02:01;;;;;;;12.85;7.63;;;11.80;73.00;;;;;;6250755;22;20058;-76
2021/04/27 09:04:44;;;;;;;11.35;7.32;;;11.80;72.80;;;;;;6303214;22;20023;-77
2021/04/27 09:07:19;;;;;;;8.68;6.43;;;12.00;72.10;;;;;;6278544;22;20463;-74
2021/04/27 09:09:58;;;;;;;13.00;7.05;;;12.10;71.30;;;;;;6304577;22;20015;-75
2021/04/27 09:12:32;;;;;;;9.73;6.32;;;12.20;69.40;;;;;;6277006;22;20154;-74
2021/04/27 09:15:05;;;;;;;10.68;6.32;;;12.40;70.60;;;;;;6276280;22;20133;-74
2021/04/27 09:17:36;;;;;;;8.25;6.97;;;12.50;69.70;;;;;;6278371;22;20105;-75
2021/04/27 09:20:07;;;;;;;9.73;6.63;;;12.60;68.20;;;;;;6277106;22;20554;-74
2021/04/27 09:22:40;;;;;;;10.82;6.57;;;12.70;66.00;;;;;;6304458;22;20446;-74
2021/04/27 09:25:13;;;;;;;8.93;6.90;;;12.80;66.00;;;;;;6303296;22;20098;-75
2021/04/27 09:27:48;;;;;;;10.70;7.38;;;12.90;65.60;;;;;;6252753;22;20086;-74
2021/04/27 09:30:23;;;;;;;10.57;6.78;;;13.00;64.00;;;;;;6278887;22;20038;-74
2021/04/27 09:32:58;;;;;;;9.30;6.18;;;13.10;63.20;;;;;;6276501;22;20106;-74
2021/04/27 09:35:35;;;;;;;11.20;6.85;;;13.10;61.60;;;;;;6277109;22;20021;-74
2021/04/27 09:38:17;;;;;;;12.35;7.25;;;13.20;60.90;;;;;;6302782;22;20086;-74
2021/04/27 09:40:55;;;;;;;9.68;6.57;;;13.30;61.00;;;;;;6304879;22;20512;-74
2021/04/27 09:43:34;;;;;;;9.40;6.47;;;13.40;59.70;;;;;;6278462;22;20019;-74
2021/04/27 09:46:08;;;;;;;8.63;6.50;;;13.60;59.80;;;;;;6251694;22;20030;-74
2021/04/27 09:48:46;;;;;;;9.13;5.18;;;13.70;59.50;;;;;;6304317;22;20011;-71
2021/04/27 09:51:21;;;;;;;13.35;7.30;;;13.90;62.40;;;;;;6304624;22;20026;-74
2021/04/27 09:54:02;;;;;;;9.75;7.05;;;14.10;58.60;;;;;;6278822;22;20351;-78
2021/04/27 09:56:51;;;;;;;11.55;7.07;;;14.10;56.50;;;;;;6254444;22;20015;-73
2021/04/27 09:59:28;;;;;;;11.27;7.25;;;14.20;56.50;;;;;;6279345;22;20094;-74
2021/04/27 10:02:01;;;;;;;9.40;7.03;;;14.20;57.10;;;;;;6278797;22;20049;-74
2021/04/27 10:04:32;;;;;;;8.52;6.75;;;14.30;56.10;;;;;;6277947;22;20106;-73
2021/04/27 10:07:03;;;;;;;10.20;6.53;;;14.50;56.10;;;;;;6306309;22;20015;-76
2021/04/27 10:09:32;;;;;;;10.68;7.68;;;14.60;55.40;;;;;;6253995;22;20544;-76
2021/04/27 10:12:07;;;;;;;10.27;6.35;;;14.60;55.00;;;;;;6280252;22;20025;-76
2021/04/27 10:14:40;;;;;;;9.38;6.90;;;14.70;54.10;;;;;;6279671;22;20021;-76
2021/04/27 10:17:16;;;;;;;9.15;6.35;;;14.80;54.40;;;;;;6254715;22;20011;-76
2021/04/27 10:19:48;;;;;;;9.50;6.47;;;14.90;53.50;;;;;;6276238;22;20054;-76
2021/04/27 10:22:19;;;;;;;10.85;7.55;;;14.90;53.80;;;;;;6278708;22;20021;-76
2021/04/27 10:24:52;;;;;;;8.65;7.30;;;15.00;53.80;;;;;;6279087;22;20039;-76
2021/04/27 10:27:27;;;;;;;9.75;6.95;;;15.10;53.70;;;;;;6306207;22;20043;-76
2021/04/27 10:30:35;;;;;;;14.30;8.25;;;15.20;53.60;;;;;;6253992;22;20015;-76
2021/04/27 10:33:01;;;;;;;8.35;6.22;;;15.30;53.50;;;;;;6278254;22;20325;-76
2021/04/27 10:35:38;;;;;;;9.52;6.78;;;15.40;53.50;;;;;;6277994;22;20019;-76
2021/04/27 10:38:12;;;;;;;10.65;6.00;;;15.50;53.30;;;;;;6279018;22;20023;-76
2021/04/27 10:40:50;;;;;;;7.43;6.30;;;15.50;53.10;;;;;;6280146;22;20019;-76
2021/04/27 10:43:27;;;;;;;8.43;6.55;;;15.60;53.70;;;;;;6306280;22;20305;-77
2021/04/27 10:46:01;;;;;;;8.07;6.45;;;15.70;52.60;;;;;;6279036;22;20023;-76
2021/04/27 10:48:40;;;;;;;8.25;6.13;;;15.80;52.60;;;;;;6278823;22;20100;-76
2021/04/27 10:51:20;;;;;;;8.88;6.95;;;15.80;52.00;;;;;;6279999;22;20018;-76
2021/04/27 10:54:13;;;;;;;9.73;7.22;;;15.90;51.40;;;;;;6253366;22;20016;-77
2021/04/27 10:56:53;;;;;;;7.80;6.27;;;15.90;51.30;;;;;;6254121;22;20103;-77
2021/04/27 10:59:47;;;;;;;9.88;6.60;;;15.90;50.90;;;;;;6278812;22;20106;-77
2021/04/27 11:02:25;;;;;;;8.63;6.55;;;16.00;50.60;;;;;;6279657;22;20054;-77
2021/04/27 11:05:20;;;;;;;8.98;7.45;;;16.10;50.10;;;;;;6274570;22;20029;-76
2021/04/27 11:08:18;;;;;;;10.07;6.20;;;16.30;50.10;;;;;;6252011;22;20022;-77
2021/04/27 11:10:50;;;;;;;8.07;6.60;;;16.30;49.50;;;;;;6245566;22;20015;-77
2021/04/27 11:13:36;;;;;;;12.47;7.33;;;16.40;49.00;;;;;;6304044;22;20011;-74
2021/04/27 11:16:27;;;;;;;9.10;6.47;;;16.50;47.70;;;;;;6304427;22;20022;-74
2021/04/27 11:19:17;;;;;;;11.23;6.53;;;16.50;46.50;;;;;;6273518;22;20024;-73
2021/04/27 11:21:52;;;;;;;11.00;7.13;;;16.50;47.90;;;;;;6244752;22;20030;-74
2021/04/27 11:24:35;;;;;;;247.95;23.52;;;16.50;47.30;;;;;;6265711;22;20015;-74
2021/04/27 11:27:29;;;;;;;10.75;6.60;;;16.60;47.70;;;;;;6303581;22;20022;-75
2021/04/27 11:30:15;;;;;;;12.20;7.23;;;16.70;47.80;;;;;;6277424;22;20125;-74
2021/04/27 11:32:47;;;;;;;10.40;6.97;;;16.80;47.00;;;;;;6277947;22;20248;-77
2021/04/27 11:35:20;;;;;;;10.20;6.32;;;16.80;46.90;;;;;;6303222;22;20019;-74
2021/04/27 11:37:52;;;;;;;;;;;16.90;47.20;;;;;;6276951;22;20022;-75
2021/04/27 11:40:31;;;;;;;10.43;6.60;;;17.00;46.50;;;;;;6303930;22;20341;-75
2021/04/27 11:43:06;;;;;;;10.73;6.60;;;17.10;46.70;;;;;;6304074;22;20019;-74
2021/04/27 11:45:41;;;;;;;11.95;6.75;;;17.10;46.30;;;;;;6303101;22;20024;-76
2021/04/27 11:48:15;;;;;;;9.30;6.82;;;17.30;46.70;;;;;;6303319;22;20012;-74
2021/04/27 11:50:41;;;;;;;12.13;8.02;;;17.30;46.60;;;;;;6277010;22;20030;-74
2021/04/27 11:53:16;;;;;;;8.40;6.35;;;17.40;46.90;;;;;;6252392;22;20017;-74
2021/04/27 11:55:49;;;;;;;8.38;6.95;;;17.50;46.40;;;;;;6277357;22;20098;-74
2021/04/27 11:58:24;;;;;;;9.77;7.25;;;17.60;45.40;;;;;;6274441;22;20045;-74
2021/04/27 12:00:59;;;;;;;9.48;7.22;;;17.60;44.80;;;;;;6252193;22;20019;-74
2021/04/27 12:03:42;;;;;;;9.07;6.82;;;17.50;44.60;;;;;;6251495;22;20019;-76
2021/04/27 12:06:16;;;;;;;10.60;6.85;;;17.60;45.90;;;;;;6275533;22;20015;-75
2021/04/27 12:08:50;;;;;;;9.68;7.60;;;17.70;45.60;;;;;;6278169;22;20095;-74
2021/04/27 12:11:31;;;;;;;14.13;7.97;;;17.70;44.50;;;;;;6276003;22;20098;-77
2021/04/27 12:14:11;;;;;;;10.38;8.07;;;17.60;45.60;;;;;;6290957;22;20111;-76
2021/04/27 12:16:45;;;;;;;11.20;7.15;;;17.60;45.10;;;;;;6303974;22;20358;-73
2021/04/27 12:19:18;;;;;;;9.52;7.32;;;17.40;45.90;;;;;;6303735;22;20016;-74
2021/04/27 12:21:53;;;;;;;8.30;6.55;;;17.50;46.50;;;;;;6276833;22;20019;-74
2021/04/27 12:24:30;;;;;;;11.82;6.57;;;17.60;46.60;;;;;;6302960;22;20019;-74
2021/04/27 12:27:10;;;;;;;14.55;8.27;;;17.80;45.10;;;;;;6275813;22;20015;-76
2021/04/27 12:29:59;;;;;;;11.75;8.10;;;17.90;45.30;;;;;;6276419;22;20038;-74
2021/04/27 12:32:32;;;;;;;10.10;7.28;;;17.90;44.90;;;;;;6276264;22;20531;-74
2021/04/27 12:35:27;;;;;;;14.32;7.47;;;17.70;44.20;;;;;;6251194;22;20011;-74
2021/04/27 12:38:12;;;;;;;8.00;6.63;;;17.80;45.30;;;;;;6277737;22;20046;-74
2021/04/27 12:40:50;;;;;;;9.93;7.45;;;17.90;44.90;;;;;;6304129;22;20019;-77
2021/04/27 12:43:32;;;;;;;11.63;6.85;;;18.00;44.80;;;;;;6304155;22;20035;-76
2021/04/27 12:46:06;;;;;;;7.60;5.82;;;18.10;45.40;;;;;;6275377;22;20035;-77
2021/04/27 12:48:38;;;;;;;10.02;6.80;;;18.20;45.20;;;;;;6303068;22;20019;-75
2021/04/27 12:51:10;;;;;;;8.85;6.53;;;18.40;44.60;;;;;;6291749;22;20011;-74
2021/04/27 12:53:45;;;;;;;14.98;6.95;;;18.50;44.90;;;;;;6303654;22;20042;-73
2021/04/27 12:56:18;;;;;;;12.43;7.32;;;18.50;43.60;;;;;;6274950;22;20518;-74
2021/04/27 12:58:49;;;;;;;7.13;6.40;;;18.60;43.60;;;;;;6276479;22;20421;-74
2021/04/27 13:01:22;;;;;;;9.18;7.13;;;18.70;43.90;;;;;;6302882;22;20523;-75
2021/04/27 13:03:59;;;;;;;11.15;7.18;;;18.80;44.40;;;;;;6303295;22;20045;-74
2021/04/27 13:06:33;;;;;;;11.93;7.97;;;18.90;44.00;;;;;;6302445;22;20098;-74
2021/04/27 13:09:16;;;;;;;16.38;7.90;;;18.90;43.40;;;;;;6303232;22;20015;-74
2021/04/27 13:12:05;;;;;;;12.33;8.60;;;18.90;43.90;;;;;;6298187;22;20359;-75
2021/04/27 13:14:38;;;;;;;10.02;7.10;;;18.80;43.00;;;;;;6301710;22;20025;-75
2021/04/27 13:17:48;;;;;;;11.50;7.70;;;18.80;43.70;;;;;;6276963;22;20022;-74
2021/04/27 13:20:23;;;;;;;9.32;6.90;;;18.90;42.90;;;;;;6254747;22;20098;-74
2021/04/27 13:22:58;;;;;;;9.32;6.53;;;18.90;43.10;;;;;;6276266;22;20031;-74
2021/04/27 13:25:49;;;;;;;9.50;6.30;;;19.00;44.20;;;;;;6275011;22;20016;-74
2021/04/27 13:28:20;;;;;;;10.35;6.40;;;19.10;42.10;;;;;;6304447;22;20025;-74
2021/04/27 13:30:53;;;;;;;9.35;7.20;;;19.20;42.90;;;;;;6277472;22;20018;-74
2021/04/27 13:33:44;;;;;;;10.68;7.55;;;19.40;43.20;;;;;;6302066;22;20497;-74